Time;durP1;ratioP1;P1;durP2;ratioP2;P2;SDS_P1;SDS_P2;PMS_P1;PMS_P2;Temp;Humidity;BMP_temperature;BMP_pressure;BME280_temperature;BME280_humidity;BME280_pressure;Samples;Min_cycle;Max_cycle;Signal;HPM_P1;HPM_P2
2021/03/16 00:00:01;;;;;;;48.05;5.70;;;6.40;90.90;;;;;;5078193;28;20020;-79
2021/03/16 00:02:27;;;;;;;34.92;4.93;;;6.50;91.00;;;;;;5096369;28;20483;-79
2021/03/16 00:04:52;;;;;;;31.05;5.07;;;6.40;91.00;;;;;;5096096;28;20067;-79
2021/03/16 00:07:20;;;;;;;32.20;5.07;;;6.50;90.90;;;;;;5078025;28;20028;-79
2021/03/16 00:09:45;;;;;;;45.30;5.18;;;6.50;90.90;;;;;;5077295;28;20032;-79
2021/03/16 00:12:11;;;;;;;42.50;4.78;;;6.50;90.90;;;;;;5077389;28;20046;-79
2021/03/16 00:14:37;;;;;;;37.63;5.65;;;6.50;90.90;;;;;;5061271;28;20028;-81
2021/03/16 00:17:03;;;;;;;40.63;5.43;;;6.50;90.90;;;;;;5096276;28;20048;-82
2021/03/16 00:19:29;;;;;;;33.28;5.28;;;6.50;91.00;;;;;;5061126;28;20035;-81
2021/03/16 00:21:54;;;;;;;37.13;4.22;;;6.40;90.90;;;;;;5078030;28;20024;-81
2021/03/16 00:24:20;;;;;;;38.38;5.00;;;6.50;91.00;;;;;;5096120;28;20085;-81
2021/03/16 00:26:45;;;;;;;43.88;5.05;;;6.40;90.90;;;;;;5077831;28;20051;-81
2021/03/16 00:29:11;;;;;;;44.03;5.00;;;6.40;90.90;;;;;;5095860;28;20106;-81
2021/03/16 00:31:37;;;;;;;40.53;5.32;;;6.50;90.80;;;;;;5095819;28;20035;-81
2021/03/16 00:34:02;;;;;;;36.17;4.93;;;6.40;90.70;;;;;;5057529;28;20487;-81
2021/03/16 00:36:28;;;;;;;37.20;5.05;;;6.40;90.80;;;;;;5071646;28;20484;-81
2021/03/16 00:38:54;;;;;;;38.45;4.60;;;6.40;90.80;;;;;;5096020;28;20028;-81
2021/03/16 00:41:19;;;;;;;31.58;4.30;;;6.40;90.90;;;;;;5095603;28;20051;-81
2021/03/16 00:43:46;;;;;;;31.58;3.83;;;6.40;90.90;;;;;;5077893;28;20362;-81
2021/03/16 00:46:12;;;;;;;40.90;4.97;;;6.40;90.90;;;;;;5077386;28;20039;-81
2021/03/16 00:48:37;;;;;;;43.30;4.97;;;6.40;90.90;;;;;;5077376;28;20032;-81
2021/03/16 00:51:03;;;;;;;44.47;4.78;;;6.40;90.80;;;;;;5095827;28;20399;-82
2021/03/16 00:53:29;;;;;;;34.38;4.40;;;6.40;90.70;;;;;;5095786;28;20031;-81
2021/03/16 00:55:55;;;;;;;37.40;4.45;;;6.40;90.70;;;;;;5043994;28;20044;-81
2021/03/16 00:58:25;;;;;;;36.70;5.05;;;6.40;90.70;;;;;;5095604;28;20058;-81
2021/03/16 01:00:51;;;;;;;34.30;4.22;;;6.40;90.60;;;;;;5094990;28;20354;-81
2021/03/16 01:03:16;;;;;;;41.85;5.25;;;6.40;90.60;;;;;;5076931;28;20075;-81
2021/03/16 01:05:42;;;;;;;30.83;4.45;;;6.40;90.50;;;;;;5077221;28;20022;-81
2021/03/16 01:08:07;;;;;;;38.58;4.40;;;6.30;90.20;;;;;;5094933;28;20084;-81
2021/03/16 01:10:33;;;;;;;29.85;3.97;;;6.30;90.10;;;;;;5095062;28;20035;-82
2021/03/16 01:12:59;;;;;;;39.70;4.63;;;6.30;90.10;;;;;;5077285;28;20047;-81
2021/03/16 01:15:24;;;;;;;25.38;3.50;;;6.40;90.10;;;;;;5095300;28;20031;-81
2021/03/16 01:17:50;;;;;;;31.83;4.90;;;6.40;90.00;;;;;;5095181;28;20385;-81
2021/03/16 01:20:19;;;;;;;23.10;2.78;;;6.30;89.70;;;;;;5095104;28;20473;-82
2021/03/16 01:22:44;;;;;;;34.72;4.22;;;6.30;90.20;;;;;;5076932;28;20024;-81
2021/03/16 01:25:11;;;;;;;38.10;3.63;;;6.30;89.80;;;;;;5076658;28;20388;-81
2021/03/16 01:27:37;;;;;;;30.45;3.40;;;6.30;89.50;;;;;;5076675;28;20417;-81
2021/03/16 01:30:04;;;;;;;36.35;3.67;;;6.40;89.60;;;;;;5094753;28;20047;-81
2021/03/16 01:32:30;;;;;;;28.25;3.53;;;6.40;89.50;;;;;;5094645;28;20020;-81
2021/03/16 01:34:56;;;;;;;36.28;4.03;;;6.40;89.70;;;;;;5094442;28;20030;-81
2021/03/16 01:37:21;;;;;;;32.45;3.80;;;6.40;89.70;;;;;;5076778;28;20024;-81
2021/03/16 01:39:48;;;;;;;28.52;4.07;;;6.40;89.80;;;;;;5094513;28;20016;-81
2021/03/16 01:42:14;;;;;;;30.48;3.70;;;6.40;89.80;;;;;;5076281;28;20059;-81
2021/03/16 01:44:43;;;;;;;31.15;4.63;;;6.40;89.90;;;;;;5094430;28;20024;-79
2021/03/16 01:47:17;;;;;;;35.90;3.73;;;6.40;89.90;;;;;;5060337;28;20077;-79
2021/03/16 01:49:43;;;;;;;39.22;4.45;;;6.40;89.90;;;;;;5057863;28;20074;-78
2021/03/16 01:52:13;;;;;;;28.30;3.60;;;6.40;89.90;;;;;;5059361;28;20028;-79
2021/03/16 01:54:40;;;;;;;39.00;4.25;;;6.40;89.90;;;;;;5075972;28;20048;-79
2021/03/16 01:57:09;;;;;;;37.05;3.42;;;6.40;90.00;;;;;;5093373;28;20051;-79
2021/03/16 01:59:34;;;;;;;31.58;4.63;;;6.40;90.10;;;;;;5076134;28;20020;-79
2021/03/16 02:02:01;;;;;;;39.35;4.53;;;6.30;90.30;;;;;;5075623;28;20081;-79
2021/03/16 02:04:27;;;;;;;33.58;4.15;;;6.30;90.50;;;;;;5075412;28;20500;-78
2021/03/16 02:07:00;;;;;;;41.55;4.28;;;6.30;90.60;;;;;;5093781;28;20032;-79
2021/03/16 02:09:32;;;;;;;36.80;4.05;;;6.30;90.70;;;;;;5075832;28;20024;-79
2021/03/16 02:12:08;;;;;;;29.95;4.18;;;6.30;90.70;;;;;;5093923;28;20032;-79
2021/03/16 02:14:38;;;;;;;37.70;4.57;;;6.30;90.80;;;;;;5075439;28;20028;-79
2021/03/16 02:17:18;;;;;;;35.28;3.90;;;6.30;90.90;;;;;;5075959;28;20069;-79
2021/03/16 02:19:52;;;;;;;31.40;5.35;;;6.30;90.90;;;;;;5072756;28;20103;-81
2021/03/16 02:22:20;;;;;;;37.10;4.15;;;6.30;90.90;;;;;;5055624;28;20043;-81
2021/03/16 02:25:23;;;;;;;32.80;4.05;;;6.20;91.00;;;;;;5074742;28;20031;-82
2021/03/16 02:28:07;;;;;;;51.20;5.55;;;6.30;91.00;;;;;;5075587;28;20073;-81
2021/03/16 02:30:34;;;;;;;39.97;5.00;;;6.30;91.00;;;;;;5093489;28;20452;-81
2021/03/16 02:33:02;;;;;;;38.50;4.95;;;6.20;91.00;;;;;;5075493;28;20100;-81
2021/03/16 02:35:28;;;;;;;36.75;4.32;;;6.20;91.00;;;;;;5093553;28;20477;-81
2021/03/16 02:37:57;;;;;;;33.25;4.20;;;6.30;91.00;;;;;;5075184;28;20024;-81
2021/03/16 02:40:25;;;;;;;34.17;4.60;;;6.30;91.00;;;;;;5092862;28;20031;-81
2021/03/16 02:42:51;;;;;;;29.60;3.42;;;6.30;91.00;;;;;;5058479;28;20024;-81
2021/03/16 02:45:17;;;;;;;49.10;5.18;;;6.30;91.00;;;;;;5093205;28;20221;-82
2021/03/16 02:47:44;;;;;;;26.38;3.90;;;6.30;90.90;;;;;;5093251;28;20032;-81
2021/03/16 02:50:12;;;;;;;35.95;3.95;;;6.30;90.90;;;;;;5059120;28;20032;-81
2021/03/16 02:52:38;;;;;;;32.20;4.82;;;6.20;90.80;;;;;;5075191;28;20024;-81
2021/03/16 02:55:05;;;;;;;38.40;3.88;;;6.30;90.80;;;;;;5093359;28;20063;-81
2021/03/16 02:57:32;;;;;;;44.67;4.70;;;6.20;90.80;;;;;;5075245;28;20027;-81
2021/03/16 03:00:04;;;;;;;38.75;4.20;;;6.20;90.80;;;;;;5075142;28;20069;-81
2021/03/16 03:02:31;;;;;;;41.47;4.72;;;6.20;90.80;;;;;;5093183;28;20034;-81
2021/03/16 03:04:59;;;;;;;33.78;4.55;;;6.20;90.80;;;;;;5093284;28;20026;-81
2021/03/16 03:07:25;;;;;;;37.08;4.47;;;6.20;90.90;;;;;;5093325;28;20050;-81
2021/03/16 03:09:52;;;;;;;34.22;4.18;;;6.20;90.90;;;;;;5075166;28;20036;-81
2021/03/16 03:12:17;;;;;;;38.28;5.07;;;6.20;90.90;;;;;;5093004;28;20040;-81
2021/03/16 03:14:43;;;;;;;37.08;4.85;;;6.20;91.00;;;;;;5075124;28;20427;-81
2021/03/16 03:17:09;;;;;;;34.45;4.78;;;6.20;91.00;;;;;;5093057;28;20024;-82
2021/03/16 03:19:35;;;;;;;42.90;6.43;;;6.20;90.90;;;;;;5093070;28;20032;-82
2021/03/16 03:22:14;;;;;;;34.30;5.65;;;6.20;90.90;;;;;;5058241;28;20131;-81
2021/03/16 03:24:48;;;;;;;37.67;5.53;;;6.20;90.90;;;;;;5093154;28;20020;-81
2021/03/16 03:27:23;;;;;;;41.05;5.57;;;6.20;90.90;;;;;;5075046;28;20523;-81
2021/03/16 03:29:50;;;;;;;41.00;5.80;;;6.20;90.90;;;;;;5075153;28;20110;-82
2021/03/16 03:32:21;;;;;;;42.38;5.80;;;6.10;91.00;;;;;;5096905;28;20119;-81
2021/03/16 03:34:48;;;;;;;41.67;5.85;;;6.20;91.00;;;;;;5097087;28;20024;-81
2021/03/16 03:37:16;;;;;;;40.67;5.65;;;6.20;90.90;;;;;;5078875;28;20738;-81
2021/03/16 03:39:42;;;;;;;46.27;6.23;;;6.20;90.90;;;;;;5096898;28;20411;-81
2021/03/16 03:42:09;;;;;;;38.95;6.10;;;6.20;90.80;;;;;;5078604;28;20273;-81
2021/03/16 03:44:39;;;;;;;38.92;5.82;;;6.20;90.80;;;;;;5078609;28;20031;-81
2021/03/16 03:47:08;;;;;;;39.00;6.05;;;6.20;90.80;;;;;;5096796;28;20032;-81
2021/03/16 03:49:36;;;;;;;46.33;6.15;;;6.20;90.70;;;;;;5078656;28;20023;-81
2021/03/16 03:52:03;;;;;;;37.08;5.57;;;6.20;90.70;;;;;;5078175;28;20039;-81
2021/03/16 03:54:30;;;;;;;37.30;4.95;;;6.20;90.70;;;;;;5096675;28;20477;-81
2021/03/16 03:56:56;;;;;;;35.35;5.43;;;6.20;90.70;;;;;;5097063;28;20485;-81
2021/03/16 03:59:24;;;;;;;26.52;4.15;;;6.20;90.60;;;;;;5078498;28;20028;-81
2021/03/16 04:01:51;;;;;;;32.63;4.70;;;6.20;90.50;;;;;;5078193;28;20424;-81
2021/03/16 04:04:17;;;;;;;28.88;4.43;;;6.20;90.70;;;;;;5096482;28;20036;-81
2021/03/16 04:06:45;;;;;;;32.97;5.03;;;6.20;90.70;;;;;;5096565;28;20032;-81
2021/03/16 04:09:11;;;;;;;33.58;4.05;;;6.20;90.70;;;;;;5061752;28;20028;-81
2021/03/16 04:11:38;;;;;;;31.23;4.32;;;6.20;90.70;;;;;;5096403;28;20419;-81
2021/03/16 04:14:04;;;;;;;38.50;4.60;;;6.20;90.70;;;;;;5078165;28;20032;-81
2021/03/16 04:16:31;;;;;;;31.73;4.03;;;6.20;90.70;;;;;;5096436;28;20480;-81
2021/03/16 04:18:57;;;;;;;48.72;5.22;;;6.20;90.70;;;;;;5096251;28;20036;-78
2021/03/16 04:21:22;;;;;;;33.63;3.78;;;6.20;90.70;;;;;;5044709;28;20123;-78
2021/03/16 04:23:49;;;;;;;29.27;3.78;;;6.20;91.00;;;;;;5078327;28;20061;-78
2021/03/16 04:26:14;;;;;;;22.77;3.90;;;6.20;90.80;;;;;;5077866;28;20024;-78
2021/03/16 04:28:40;;;;;;;36.53;4.65;;;6.20;90.80;;;;;;5077477;28;20170;-78
2021/03/16 04:31:05;;;;;;;33.03;4.28;;;6.20;90.80;;;;;;5095711;28;20081;-78
2021/03/16 04:33:31;;;;;;;28.75;3.60;;;6.10;90.70;;;;;;5061037;28;20035;-78
2021/03/16 04:35:57;;;;;;;25.52;4.00;;;6.20;90.70;;;;;;5095733;28;20016;-78
2021/03/16 04:38:23;;;;;;;30.38;3.60;;;6.20;90.70;;;;;;5060746;28;20043;-79
2021/03/16 04:40:48;;;;;;;37.85;4.13;;;6.20;90.70;;;;;;5061060;28;20064;-78
2021/03/16 04:43:14;;;;;;;32.25;4.18;;;6.20;90.70;;;;;;5060107;28;20028;-78
2021/03/16 04:45:40;;;;;;;28.17;3.45;;;6.20;90.70;;;;;;5060214;28;20059;-78
2021/03/16 04:48:05;;;;;;;35.60;3.78;;;6.20;90.60;;;;;;5077245;28;20032;-78
2021/03/16 04:50:31;;;;;;;27.35;3.47;;;6.20;90.60;;;;;;5095204;28;20024;-78
2021/03/16 04:52:57;;;;;;;27.85;3.85;;;6.20;90.60;;;;;;5077552;28;20024;-78
2021/03/16 04:55:22;;;;;;;35.55;3.88;;;6.20;90.60;;;;;;5090317;28;20104;-78
2021/03/16 04:57:48;;;;;;;34.67;3.88;;;6.20;90.60;;;;;;5094849;28;20032;-78
2021/03/16 05:00:15;;;;;;;32.53;3.40;;;6.20;90.50;;;;;;5056969;28;20417;-78
2021/03/16 05:02:41;;;;;;;26.42;3.72;;;6.20;90.50;;;;;;5083547;28;20028;-78
2021/03/16 05:05:08;;;;;;;28.30;3.33;;;6.20;90.40;;;;;;5076465;28;20043;-78
2021/03/16 05:07:33;;;;;;;34.63;3.72;;;6.20;90.40;;;;;;5076376;28;20043;-78
2021/03/16 05:09:59;;;;;;;24.42;3.95;;;6.20;90.40;;;;;;5095146;28;20063;-78
2021/03/16 05:12:25;;;;;;;22.67;3.45;;;6.20;90.50;;;;;;5077464;28;20028;-79
2021/03/16 05:14:51;;;;;;;23.08;4.03;;;6.30;90.80;;;;;;5077010;28;20031;-78
2021/03/16 05:17:17;;;;;;;31.60;3.95;;;6.30;90.50;;;;;;5077232;28;20389;-78
2021/03/16 05:19:42;;;;;;;23.17;3.85;;;6.30;90.50;;;;;;5095112;28;20035;-79
2021/03/16 05:22:09;;;;;;;19.52;3.45;;;6.30;90.50;;;;;;5060411;28;20520;-78
2021/03/16 05:24:35;;;;;;;19.85;4.18;;;6.30;90.50;;;;;;5094840;28;20024;-79
2021/03/16 05:27:00;;;;;;;36.35;4.90;;;6.30;90.80;;;;;;5076671;28;20025;-78
2021/03/16 05:29:26;;;;;;;16.67;3.20;;;6.30;90.60;;;;;;5076478;28;20032;-79
2021/03/16 05:31:52;;;;;;;26.38;4.03;;;6.30;90.60;;;;;;5076586;28;20487;-79
2021/03/16 05:34:17;;;;;;;28.95;4.78;;;6.30;90.60;;;;;;5094694;28;20028;-78
2021/03/16 05:36:43;;;;;;;26.60;4.32;;;6.30;90.60;;;;;;5094472;28;20543;-79
2021/03/16 05:39:09;;;;;;;23.27;4.13;;;6.30;90.60;;;;;;5094726;28;20070;-78
2021/03/16 05:41:40;;;;;;;28.83;4.53;;;6.30;90.60;;;;;;5094286;28;20036;-78
2021/03/16 05:44:06;;;;;;;25.80;3.60;;;6.30;90.70;;;;;;5094781;28;20031;-78
2021/03/16 05:46:34;;;;;;;23.33;4.28;;;6.30;90.70;;;;;;5076405;28;20036;-78
2021/03/16 05:49:06;;;;;;;35.58;4.43;;;6.30;90.60;;;;;;5076228;28;20081;-78
2021/03/16 05:51:33;;;;;;;35.60;3.88;;;6.20;90.60;;;;;;5093941;28;20115;-78
2021/03/16 05:53:59;;;;;;;29.13;4.55;;;6.20;90.70;;;;;;5075939;28;20477;-78
2021/03/16 05:56:25;;;;;;;28.58;4.78;;;6.30;90.70;;;;;;5093907;28;20040;-78
2021/03/16 05:58:52;;;;;;;29.65;4.63;;;6.20;90.70;;;;;;5059700;28;20162;-78
2021/03/16 06:01:18;;;;;;;30.10;4.95;;;6.20;90.70;;;;;;5075984;28;20028;-78
2021/03/16 06:03:47;;;;;;;44.72;5.65;;;6.20;90.80;;;;;;5093854;28;20617;-78
2021/03/16 06:06:13;;;;;;;36.35;4.55;;;6.20;90.80;;;;;;5094506;28;20027;-78
2021/03/16 06:08:39;;;;;;;36.45;4.40;;;6.20;90.80;;;;;;5075649;28;20054;-78
2021/03/16 06:11:08;;;;;;;36.20;4.95;;;6.20;90.90;;;;;;5076310;28;20070;-78
2021/03/16 06:13:35;;;;;;;29.70;4.45;;;6.20;91.00;;;;;;5076282;28;20047;-78
2021/03/16 06:16:11;;;;;;;46.60;6.28;;;6.20;91.10;;;;;;5094066;28;20043;-79
2021/03/16 06:18:41;;;;;;;43.30;6.03;;;6.20;91.20;;;;;;5075007;28;20020;-78
2021/03/16 06:21:08;;;;;;;31.85;5.60;;;6.10;91.30;;;;;;5072580;28;20373;-78
2021/03/16 06:23:36;;;;;;;35.72;6.15;;;6.20;91.40;;;;;;5072781;28;20032;-78
2021/03/16 06:26:03;;;;;;;32.40;5.03;;;6.20;91.40;;;;;;5055711;28;20020;-78
2021/03/16 06:28:33;;;;;;;30.92;4.47;;;6.20;91.40;;;;;;5073757;28;20079;-78
2021/03/16 06:30:59;;;;;;;36.83;4.90;;;6.20;91.40;;;;;;5055692;28;20020;-78
2021/03/16 06:33:27;;;;;;;35.03;5.13;;;6.30;91.50;;;;;;5073626;28;20024;-78
2021/03/16 06:35:56;;;;;;;36.20;6.03;;;6.30;91.40;;;;;;5073439;28;20028;-78
2021/03/16 06:38:22;;;;;;;36.53;5.75;;;6.30;91.40;;;;;;5061482;28;20488;-78
2021/03/16 06:40:48;;;;;;;37.63;5.38;;;6.40;91.50;;;;;;5093615;28;20040;-78
2021/03/16 06:43:13;;;;;;;40.35;6.63;;;6.30;91.60;;;;;;5093637;28;20020;-78
2021/03/16 06:45:40;;;;;;;34.17;7.13;;;6.30;91.80;;;;;;5093518;28;20028;-78
2021/03/16 06:48:15;;;;;;;37.00;6.60;;;6.30;91.90;;;;;;5058812;28;20028;-78
2021/03/16 06:50:42;;;;;;;42.33;6.97;;;6.30;92.10;;;;;;5093101;28;20050;-78
2021/03/16 06:53:26;;;;;;;37.08;6.57;;;6.20;92.30;;;;;;5107710;28;20039;-78
2021/03/16 06:55:52;;;;;;;47.60;7.82;;;6.30;92.40;;;;;;5107893;28;20162;-78
2021/03/16 06:58:28;;;;;;;53.25;8.05;;;6.20;92.50;;;;;;5093527;28;20020;-78
2021/03/16 07:01:09;;;;;;;34.88;8.55;;;6.30;92.70;;;;;;5092996;28;20051;-78
2021/03/16 07:03:36;;;;;;;54.70;9.52;;;6.30;92.90;;;;;;5075365;28;20103;-78
2021/03/16 07:06:20;;;;;;;47.45;8.98;;;6.30;92.90;;;;;;5092898;28;20054;-79
2021/03/16 07:08:48;;;;;;;42.75;7.13;;;6.40;92.90;;;;;;5061952;28;20150;-78
2021/03/16 07:11:19;;;;;;;37.30;8.00;;;6.40;92.80;;;;;;5054995;28;20435;-79
2021/03/16 07:13:46;;;;;;;49.70;7.82;;;6.40;92.70;;;;;;5073069;28;20017;-79
2021/03/16 07:16:12;;;;;;;42.15;8.50;;;6.40;92.60;;;;;;5078834;28;20029;-79
2021/03/16 07:18:40;;;;;;;40.08;7.97;;;6.40;92.60;;;;;;5092405;28;20024;-78
2021/03/16 07:21:30;;;;;;;38.88;7.72;;;6.40;92.70;;;;;;5074374;28;20058;-79
2021/03/16 07:24:10;;;;;;;41.33;7.40;;;6.50;92.70;;;;;;5072934;28;20020;-79
2021/03/16 07:26:37;;;;;;;41.45;7.90;;;6.50;92.70;;;;;;5084037;28;20024;-79
2021/03/16 07:29:04;;;;;;;34.03;7.35;;;6.60;92.60;;;;;;5092565;28;20054;-79
2021/03/16 07:31:39;;;;;;;38.30;8.20;;;6.60;92.50;;;;;;5074906;28;20163;-79
2021/03/16 07:34:06;;;;;;;32.25;6.32;;;6.70;92.60;;;;;;5092856;28;20091;-79
2021/03/16 07:36:38;;;;;;;37.15;6.90;;;6.70;92.40;;;;;;5075215;28;20028;-79
2021/03/16 07:39:06;;;;;;;36.20;6.57;;;6.80;92.40;;;;;;5093181;28;20095;-79
2021/03/16 07:41:32;;;;;;;39.28;6.57;;;6.90;92.50;;;;;;5092913;28;20108;-79
2021/03/16 07:44:06;;;;;;;35.22;6.35;;;7.00;92.10;;;;;;5054932;28;20033;-79
2021/03/16 07:46:48;;;;;;;35.65;5.97;;;7.10;92.00;;;;;;5055012;28;20029;-79
2021/03/16 07:49:27;;;;;;;31.10;6.10;;;7.20;92.10;;;;;;5072733;28;20025;-79
2021/03/16 07:51:52;;;;;;;36.40;6.53;;;7.30;91.40;;;;;;5071623;28;20035;-79
2021/03/16 07:54:20;;;;;;;33.42;6.57;;;7.30;91.50;;;;;;5092923;28;20271;-79
2021/03/16 07:57:01;;;;;;;34.53;5.53;;;7.40;91.30;;;;;;5088374;28;20040;-79
2021/03/16 07:59:36;;;;;;;30.88;5.47;;;7.40;91.20;;;;;;5092966;28;20078;-80
2021/03/16 08:02:04;;;;;;;28.88;5.72;;;7.40;90.90;;;;;;5074429;28;20435;-79
2021/03/16 08:04:40;;;;;;;31.13;5.50;;;7.40;90.60;;;;;;5074643;28;20074;-79
2021/03/16 08:07:12;;;;;;;30.30;5.40;;;7.40;90.90;;;;;;5092839;28;20081;-79
2021/03/16 08:09:46;;;;;;;35.88;6.07;;;7.40;90.30;;;;;;5092380;28;20035;-79
2021/03/16 08:12:31;;;;;;;33.15;6.20;;;7.40;90.40;;;;;;5074486;28;20029;-79
2021/03/16 08:15:09;;;;;;;36.60;5.72;;;7.50;90.40;;;;;;5092883;28;20065;-80
2021/03/16 08:17:37;;;;;;;42.78;6.72;;;7.50;90.50;;;;;;5094210;28;20029;-80
2021/03/16 08:20:04;;;;;;;34.20;6.90;;;7.60;90.50;;;;;;5083726;28;20024;-78
2021/03/16 08:22:30;;;;;;;34.90;6.38;;;7.70;90.60;;;;;;5080004;28;20067;-79
2021/03/16 08:25:02;;;;;;;30.52;5.82;;;7.80;90.20;;;;;;5061536;28;20036;-79
2021/03/16 08:27:28;;;;;;;33.15;5.80;;;7.70;89.80;;;;;;5095994;28;20028;-79
2021/03/16 08:29:54;;;;;;;24.73;4.70;;;7.60;90.10;;;;;;5077826;28;20103;-79
2021/03/16 08:32:21;;;;;;;16.17;2.90;;;7.40;90.10;;;;;;5061365;28;20032;-79
2021/03/16 08:34:48;;;;;;;21.98;3.47;;;7.20;89.30;;;;;;5061171;28;20544;-79
2021/03/16 08:37:21;;;;;;;21.92;3.30;;;7.10;89.50;;;;;;5096019;28;20059;-79
2021/03/16 08:39:47;;;;;;;20.50;3.92;;;6.90;90.20;;;;;;5096023;28;20024;-79
2021/03/16 08:42:20;;;;;;;17.70;3.50;;;6.80;90.60;;;;;;5095982;28;20034;-79
2021/03/16 08:44:46;;;;;;;27.63;5.97;;;6.90;91.10;;;;;;5095613;28;20024;-79
2021/03/16 08:47:14;;;;;;;31.65;5.65;;;7.00;91.50;;;;;;5095852;28;20051;-79
2021/03/16 08:49:41;;;;;;;29.50;7.20;;;7.10;91.70;;;;;;5095471;28;20116;-79
2021/03/16 08:52:26;;;;;;;33.72;6.85;;;7.20;91.80;;;;;;5077612;28;20408;-79
2021/03/16 08:54:54;;;;;;;24.77;4.35;;;7.30;91.90;;;;;;5077403;28;20144;-79
2021/03/16 08:57:24;;;;;;;22.92;4.68;;;7.30;91.10;;;;;;5077116;28;20098;-79
2021/03/16 08:59:55;;;;;;;18.42;2.75;;;7.30;90.70;;;;;;5077419;28;20123;-79
2021/03/16 09:02:29;;;;;;;19.17;2.85;;;7.40;90.30;;;;;;5077286;28;20145;-79
2021/03/16 09:04:58;;;;;;;14.95;2.58;;;7.40;90.00;;;;;;5076923;28;20059;-79
2021/03/16 09:07:25;;;;;;;9.93;2.35;;;7.40;89.70;;;;;;5043675;28;20032;-79
2021/03/16 09:10:09;;;;;;;13.90;2.55;;;7.30;88.90;;;;;;5095204;28;20028;-79
2021/03/16 09:12:37;;;;;;;13.80;4.03;;;7.30;89.30;;;;;;5086581;28;20033;-80
2021/03/16 09:15:10;;;;;;;25.30;4.30;;;7.20;89.50;;;;;;5095104;28;20032;-79
2021/03/16 09:17:38;;;;;;;20.67;3.90;;;7.20;89.80;;;;;;5045149;28;20392;-79
2021/03/16 09:20:19;;;;;;;20.65;4.53;;;7.20;90.30;;;;;;5060619;28;20519;-79
2021/03/16 09:22:52;;;;;;;12.65;3.75;;;7.30;90.40;;;;;;5095020;28;20481;-79
2021/03/16 09:25:18;;;;;;;20.08;4.82;;;7.30;90.30;;;;;;5076897;28;20036;-79
2021/03/16 09:27:44;;;;;;;22.38;5.00;;;7.40;90.10;;;;;;5094321;28;20080;-78
2021/03/16 09:30:11;;;;;;;17.67;4.63;;;7.50;90.30;;;;;;5076750;28;20066;-79
2021/03/16 09:32:42;;;;;;;21.80;4.25;;;7.60;89.80;;;;;;5046372;28;20025;-82
2021/03/16 09:35:08;;;;;;;30.48;5.25;;;7.60;90.10;;;;;;5084560;28;20074;-84
2021/03/16 09:37:46;;;;;;;31.80;5.47;;;7.80;90.20;;;;;;5075712;28;20487;-84
2021/03/16 09:40:12;;;;;;;26.55;4.53;;;7.90;89.20;;;;;;5076057;28;20013;-82
2021/03/16 09:42:46;;;;;;;30.85;5.30;;;7.90;88.80;;;;;;5086442;28;20085;-82
2021/03/16 09:45:20;;;;;;;31.35;5.85;;;8.00;88.50;;;;;;5094272;28;20412;-82
2021/03/16 09:47:47;;;;;;;27.33;5.35;;;8.00;88.20;;;;;;5076000;28;20032;-83
2021/03/16 09:50:22;;;;;;;28.13;4.90;;;8.10;89.00;;;;;;5093635;28;20031;-82
2021/03/16 09:52:48;;;;;;;32.75;5.50;;;8.30;88.20;;;;;;5093473;28;20035;-84
2021/03/16 09:55:17;;;;;;;19.88;5.10;;;8.50;88.10;;;;;;5058395;28;20032;-81
2021/03/16 09:57:47;;;;;;;17.35;4.07;;;8.70;86.90;;;;;;5094036;28;20568;-84
2021/03/16 10:00:14;;;;;;;20.50;4.32;;;8.90;87.00;;;;;;5059328;28;20128;-86
2021/03/16 10:02:41;;;;;;;24.73;4.30;;;9.10;84.80;;;;;;5043053;28;20028;-84
2021/03/16 10:05:16;;;;;;;23.67;4.18;;;9.30;85.60;;;;;;5055888;28;20075;-83
2021/03/16 10:07:42;;;;;;;19.38;4.18;;;9.30;84.00;;;;;;5081368;28;20377;-84
2021/03/16 10:10:12;;;;;;;25.83;4.35;;;9.40;83.70;;;;;;5076064;28;20028;-85
2021/03/16 10:12:39;;;;;;;19.13;4.10;;;9.40;82.20;;;;;;5094219;28;20170;-85
2021/03/16 10:15:07;;;;;;;18.80;3.58;;;9.30;82.00;;;;;;5075805;28;20550;-85
2021/03/16 10:17:33;;;;;;;23.40;3.45;;;9.20;80.70;;;;;;5075737;28;20111;-86
2021/03/16 10:20:03;;;;;;;28.13;4.20;;;9.00;81.50;;;;;;5075632;28;20123;-86
2021/03/16 10:22:31;;;;;;;18.50;3.40;;;9.00;82.40;;;;;;5094162;28;20020;-84
2021/03/16 10:24:59;;;;;;;15.15;3.10;;;9.00;82.90;;;;;;5075876;28;20480;-81
2021/03/16 10:27:30;;;;;;;20.75;2.97;;;9.00;82.10;;;;;;5075695;28;20028;-82
2021/03/16 10:30:01;;;;;;;15.90;3.15;;;9.10;81.50;;;;;;5095180;28;20084;-81
2021/03/16 10:32:27;;;;;;;18.98;3.20;;;9.00;80.60;;;;;;5084879;28;20066;-82
2021/03/16 10:34:52;;;;;;;18.98;3.00;;;8.90;80.20;;;;;;5059245;28;20063;-82
2021/03/16 10:37:23;;;;;;;24.48;3.72;;;8.90;80.30;;;;;;5093927;28;20487;-81
2021/03/16 10:39:55;;;;;;;19.40;2.95;;;8.80;79.80;;;;;;5075252;28;20078;-82
2021/03/16 10:42:20;;;;;;;23.80;3.20;;;8.80;80.00;;;;;;5076443;28;20024;-82
2021/03/16 10:44:46;;;;;;;15.82;2.50;;;8.80;80.10;;;;;;5075761;28;20035;-82
2021/03/16 10:47:12;;;;;;;18.92;2.80;;;8.90;79.90;;;;;;5059008;28;20507;-82
2021/03/16 10:49:38;;;;;;;15.70;2.33;;;8.90;79.70;;;;;;5075970;28;20047;-83
2021/03/16 10:52:04;;;;;;;15.25;2.50;;;8.90;78.40;;;;;;5058695;28;20085;-81
2021/03/16 10:54:30;;;;;;;18.50;3.50;;;8.80;78.40;;;;;;5069091;28;20024;-81
2021/03/16 10:56:57;;;;;;;27.33;3.55;;;8.70;79.50;;;;;;5093308;28;20401;-82
2021/03/16 10:59:23;;;;;;;16.77;3.35;;;8.50;80.50;;;;;;5058738;28;20032;-83
2021/03/16 11:01:50;;;;;;;18.98;3.45;;;8.50;81.30;;;;;;5093470;28;20115;-83
2021/03/16 11:04:19;;;;;;;14.23;1.88;;;8.40;81.60;;;;;;5093442;28;20099;-84
2021/03/16 11:06:45;;;;;;;12.75;1.73;;;8.20;78.40;;;;;;5076007;28;20370;-82
2021/03/16 11:09:12;;;;;;;13.70;2.08;;;8.00;78.60;;;;;;5093148;28;20036;-82
2021/03/16 11:11:38;;;;;;;16.33;2.47;;;8.00;80.00;;;;;;5093354;28;20542;-83
2021/03/16 11:14:03;;;;;;;15.75;2.13;;;7.90;80.20;;;;;;5058654;28;20028;-85
2021/03/16 11:16:29;;;;;;;17.35;2.25;;;7.90;80.90;;;;;;5058515;28;20055;-82
2021/03/16 11:18:54;;;;;;;17.63;2.55;;;7.90;81.70;;;;;;5075261;28;20028;-82
2021/03/16 11:21:20;;;;;;;17.20;2.50;;;8.10;82.30;;;;;;5075301;28;20040;-83
2021/03/16 11:23:45;;;;;;;17.35;2.35;;;8.20;82.50;;;;;;5058515;28;20071;-82
2021/03/16 11:26:11;;;;;;;17.20;3.10;;;8.40;83.50;;;;;;5075325;28;20028;-86
2021/03/16 11:28:37;;;;;;;21.90;2.80;;;8.60;81.90;;;;;;5093298;28;20024;-83
2021/03/16 11:31:02;;;;;;;13.63;2.58;;;8.70;80.30;;;;;;5058638;28;20020;-83
2021/03/16 11:33:28;;;;;;;15.20;2.58;;;8.80;79.50;;;;;;5058165;28;20024;-84
2021/03/16 11:35:54;;;;;;;16.00;2.42;;;8.80;79.80;;;;;;5075909;28;20059;-82
2021/03/16 11:38:19;;;;;;;21.02;2.90;;;8.90;80.70;;;;;;5092954;28;20104;-81
2021/03/16 11:40:45;;;;;;;14.45;2.30;;;9.00;78.60;;;;;;5092903;28;20036;-81
2021/03/16 11:43:11;;;;;;;14.27;2.47;;;9.00;79.10;;;;;;5058288;28;20035;-81
2021/03/16 11:45:37;;;;;;;7.88;1.60;;;9.00;78.70;;;;;;5058553;28;20099;-81
2021/03/16 11:48:03;;;;;;;6.00;1.35;;;8.90;78.60;;;;;;5092363;28;20109;-81
2021/03/16 11:50:29;;;;;;;7.20;1.50;;;8.70;77.20;;;;;;5074662;28;20465;-81
2021/03/16 11:52:55;;;;;;;8.23;1.85;;;8.50;78.40;;;;;;5096773;28;20069;-81
2021/03/16 11:55:20;;;;;;;5.30;1.05;;;8.50;78.60;;;;;;5106223;28;20051;-81
2021/03/16 11:57:46;;;;;;;7.57;1.50;;;8.40;78.70;;;;;;5066016;28;20052;-81
2021/03/16 12:00:12;;;;;;;9.98;1.52;;;8.40;78.10;;;;;;5096537;28;20028;-81
2021/03/16 12:02:38;;;;;;;8.77;1.60;;;8.30;77.70;;;;;;5078588;28;20496;-81
2021/03/16 12:05:04;;;;;;;7.68;1.40;;;8.30;76.90;;;;;;5078274;28;20125;-81
2021/03/16 12:07:31;;;;;;;8.23;1.50;;;8.40;80.00;;;;;;5078473;28;20028;-81
2021/03/16 12:09:57;;;;;;;8.70;1.52;;;8.50;78.00;;;;;;5078502;28;20039;-81
2021/03/16 12:12:23;;;;;;;5.35;1.38;;;8.50;78.00;;;;;;5078528;28;20040;-81
2021/03/16 12:14:48;;;;;;;14.02;2.03;;;8.60;78.00;;;;;;5044984;28;20374;-81
2021/03/16 12:17:15;;;;;;;8.35;1.75;;;8.60;77.60;;;;;;5044779;28;20035;-81
2021/03/16 12:19:40;;;;;;;7.63;1.70;;;8.60;76.70;;;;;;5061599;28;20028;-81
2021/03/16 12:22:06;;;;;;;5.47;1.50;;;8.60;77.10;;;;;;5078308;28;20024;-81
2021/03/16 12:24:32;;;;;;;6.65;1.70;;;8.60;77.60;;;;;;5096208;28;20115;-81
2021/03/16 12:26:58;;;;;;;13.23;1.73;;;8.60;78.40;;;;;;5096290;28;20043;-81
2021/03/16 12:29:24;;;;;;;6.40;1.55;;;8.70;77.90;;;;;;5096064;28;20504;-81
2021/03/16 12:31:50;;;;;;;5.40;1.00;;;8.70;77.40;;;;;;5044530;28;20552;-80
2021/03/16 12:34:16;;;;;;;4.15;0.80;;;8.80;77.40;;;;;;5077838;28;20051;-81
2021/03/16 12:36:41;;;;;;;4.13;1.08;;;8.70;76.60;;;;;;5077490;28;20131;-81
2021/03/16 12:39:07;;;;;;;6.35;0.93;;;8.60;77.10;;;;;;5077865;28;20031;-80
2021/03/16 12:41:33;;;;;;;7.55;1.35;;;8.50;77.10;;;;;;5078000;28;20032;-80
2021/03/16 12:43:59;;;;;;;4.38;1.23;;;8.30;78.50;;;;;;5078089;28;20034;-80
2021/03/16 12:46:25;;;;;;;6.38;1.13;;;8.30;79.60;;;;;;5077603;28;20115;-80
2021/03/16 12:48:51;;;;;;;5.47;1.38;;;8.30;79.40;;;;;;5077824;28;20036;-80
2021/03/16 12:51:16;;;;;;;4.78;1.20;;;8.30;79.30;;;;;;5077696;28;20388;-80